Terminal Aerodrome Forecast
Issued by NWS Billings, MT

Home | Current Version | Previous Version | Text Only | Print | Product List | Glossary Off
Versions: 1 2 3 4 5 6 7 8 9 10 11 12 13 14 15

000
FTUS45 KBYZ 270536
TAFMLS
TAF
KMLS 270536Z 2706/2806 30006KT P6SM SCT100
     FM271800 30014G24KT P6SM VCSH SCT080 BKN100
     FM280200 30008KT P6SM SCT100=

USA.gov is the U.S. government's official web portal to all federal, state and local government web resources and services.